createdAt,value
2022-10-23T00:01:20.100Z,2.22
2022-10-23T00:03:47.769Z,2.17
2022-10-23T00:06:14.633Z,2.42
2022-10-23T00:08:43.431Z,2.10
2022-10-23T00:11:12.742Z,2.30
2022-10-23T00:13:40.341Z,2.20
2022-10-23T00:16:07.643Z,2.10
2022-10-23T00:18:34.436Z,2.53
2022-10-23T00:21:01.914Z,1.98
2022-10-23T00:23:28.390Z,2.15
2022-10-23T00:25:55.018Z,2.22
2022-10-23T00:28:21.493Z,2.30
2022-10-23T00:30:48.242Z,2.10
2022-10-23T00:33:14.728Z,2.20
2022-10-23T00:35:42.330Z,2.15
2022-10-23T00:38:09.765Z,2.40
2022-10-23T00:40:37.541Z,3.28
2022-10-23T00:43:04.074Z,2.38
2022-10-23T00:45:33.488Z,2.75
2022-10-23T00:48:03.995Z,2.40
2022-10-23T00:50:33.214Z,2.53
2022-10-23T00:53:03.323Z,2.22
2022-10-23T00:55:32.190Z,2.25
2022-10-23T00:57:59.171Z,2.50
2022-10-23T01:00:51.753Z,2.05
2022-10-23T01:03:20.115Z,2.20
2022-10-23T01:05:54.956Z,2.47
2022-10-23T01:08:35.184Z,2.20
2022-10-23T01:11:19.659Z,2.55
2022-10-23T01:14:00.610Z,2.75
2022-10-23T01:16:34.570Z,2.35
2022-10-23T01:19:20.151Z,2.53
2022-10-23T01:24:56.705Z,2.38
2022-10-23T01:27:27.039Z,2.33
2022-10-23T01:30:11.931Z,2.53
2022-10-23T01:32:44.974Z,2.67
2022-10-23T01:35:16.450Z,2.13
2022-10-23T01:37:47.825Z,2.50
2022-10-23T01:40:24.356Z,2.35
2022-10-23T01:42:56.690Z,2.30
2022-10-23T01:45:40.055Z,2.90
2022-10-23T01:48:11.751Z,2.35
2022-10-23T01:50:40.356Z,2.63
2022-10-23T01:53:07.245Z,2.55
2022-10-23T01:55:34.360Z,2.60
2022-10-23T01:58:03.468Z,2.55
2022-10-23T02:00:30.916Z,3.10
2022-10-23T02:02:58.792Z,2.38
2022-10-23T02:05:27.544Z,2.75
2022-10-23T02:07:54.724Z,2.40
2022-10-23T02:10:23.106Z,2.10
2022-10-23T02:13:08.121Z,2.50
2022-10-23T02:15:40.634Z,2.83
2022-10-23T02:18:25.756Z,3.33
2022-10-23T02:21:02.520Z,2.90
2022-10-23T02:24:15.255Z,2.45
2022-10-23T02:26:50.829Z,2.35
2022-10-23T02:29:30.237Z,2.58
2022-10-23T02:31:56.797Z,2.20
2022-10-23T02:34:23.369Z,2.63
2022-10-23T02:36:49.967Z,2.60
2022-10-23T02:39:16.584Z,3.08
2022-10-23T02:42:20.324Z,2.58
2022-10-23T02:45:12.172Z,2.85
2022-10-23T02:48:12.246Z,2.50
2022-10-23T02:50:53.861Z,2.28
2022-10-23T02:53:59.154Z,2.58
2022-10-23T02:56:50.037Z,2.70
2022-10-23T02:59:27.710Z,2.78
2022-10-23T03:02:08.431Z,2.60
2022-10-23T03:04:36.648Z,2.22
2022-10-23T03:07:03.310Z,2.65
2022-10-23T03:09:30.980Z,2.58
2022-10-23T03:11:57.468Z,2.17
2022-10-23T03:14:23.896Z,2.53
2022-10-23T03:16:50.338Z,2.70
2022-10-23T03:19:16.721Z,2.45
2022-10-23T03:21:43.429Z,2.80
2022-10-23T03:24:09.872Z,2.58
2022-10-23T03:26:36.594Z,2.80
2022-10-23T03:29:03.014Z,3.15
2022-10-23T03:31:29.660Z,4.25
2022-10-23T03:33:56.085Z,2.92
2022-10-23T03:36:25.046Z,3.05
2022-10-23T03:38:51.859Z,2.80
2022-10-23T03:41:18.490Z,3.03
2022-10-23T03:43:44.965Z,2.58
2022-10-23T03:46:12.945Z,2.60
2022-10-23T03:48:39.588Z,2.30
2022-10-23T03:51:07.916Z,2.65
2022-10-23T03:53:34.740Z,2.55
2022-10-23T03:56:01.416Z,2.53
2022-10-23T03:58:27.870Z,2.78
2022-10-23T04:00:54.467Z,1.92
2022-10-23T04:03:20.873Z,2.05
2022-10-23T04:05:50.003Z,2.05
2022-10-23T04:08:20.054Z,2.33
2022-10-23T04:10:47.005Z,2.22
2022-10-23T04:13:13.458Z,2.30
2022-10-23T04:15:40.108Z,2.15
2022-10-23T04:18:06.896Z,2.20
2022-10-23T04:20:33.325Z,2.00
2022-10-23T04:22:59.865Z,2.20
2022-10-23T04:25:26.391Z,1.75
2022-10-23T04:27:52.934Z,1.90
2022-10-23T04:30:19.378Z,2.63
2022-10-23T04:32:45.882Z,2.72
2022-10-23T04:35:12.365Z,2.83
2022-10-23T04:37:38.929Z,2.40
2022-10-23T04:40:05.853Z,3.47
2022-10-23T04:42:32.334Z,2.83
2022-10-23T04:44:58.806Z,2.45
2022-10-23T04:47:25.394Z,3.35
2022-10-23T04:49:51.819Z,2.50
2022-10-23T04:52:18.382Z,2.28
2022-10-23T04:54:44.822Z,2.15
2022-10-23T04:57:11.421Z,2.03
2022-10-23T04:59:37.866Z,2.35
2022-10-23T05:02:04.659Z,2.35
2022-10-23T05:04:31.359Z,2.30
2022-10-23T05:06:57.941Z,1.95
2022-10-23T05:09:24.415Z,2.60
2022-10-23T05:11:50.993Z,2.05
2022-10-23T05:14:21.939Z,2.45
2022-10-23T05:17:12.864Z,2.25
2022-10-23T05:19:45.881Z,2.28
2022-10-23T05:22:13.370Z,2.47
2022-10-23T05:24:40.340Z,2.58
2022-10-23T05:27:06.761Z,2.50
2022-10-23T05:29:33.279Z,2.80
2022-10-23T05:32:04.465Z,3.10
2022-10-23T05:34:35.020Z,2.70
2022-10-23T05:37:03.375Z,3.53
2022-10-23T05:39:30.397Z,2.85
2022-10-23T05:41:56.998Z,2.53
2022-10-23T05:44:23.728Z,2.67
2022-10-23T05:46:50.474Z,2.35
2022-10-23T05:49:17.024Z,2.42
2022-10-23T05:51:43.549Z,2.80
2022-10-23T05:54:10.214Z,2.97
2022-10-23T05:56:41.479Z,3.10
2022-10-23T05:59:08.417Z,2.70
2022-10-23T06:01:34.977Z,2.70
2022-10-23T06:04:01.647Z,2.70
2022-10-23T06:06:28.262Z,3.25
2022-10-23T06:08:55.024Z,2.55
2022-10-23T06:11:21.825Z,3.05
2022-10-23T06:13:48.549Z,2.97
2022-10-23T06:16:21.141Z,2.75
2022-10-23T06:18:48.381Z,3.08
2022-10-23T06:21:15.819Z,3.55
2022-10-23T06:23:43.365Z,2.47
2022-10-23T06:26:13.465Z,2.95
2022-10-23T06:28:40.783Z,2.70
2022-10-23T06:31:09.578Z,3.03
2022-10-23T06:33:36.759Z,3.25
2022-10-23T06:36:05.416Z,3.00
2022-10-23T06:38:37.251Z,3.25
2022-10-23T06:41:04.847Z,3.00
2022-10-23T06:43:31.670Z,3.10
2022-10-23T06:46:02.021Z,2.63
2022-10-23T06:48:28.446Z,3.55
2022-10-23T06:50:55.764Z,3.25
2022-10-23T06:53:24.773Z,2.92
2022-10-23T06:55:55.312Z,2.78
2022-10-23T06:58:22.245Z,2.97
2022-10-23T07:00:49.397Z,2.83
2022-10-23T07:03:16.264Z,3.05
2022-10-23T07:05:44.874Z,3.20
2022-10-23T07:08:11.392Z,3.03
2022-10-23T07:10:42.665Z,2.50
2022-10-23T07:13:09.984Z,3.17
2022-10-23T07:15:37.679Z,3.10
2022-10-23T07:18:05.029Z,2.97
2022-10-23T07:20:31.668Z,3.13
2022-10-23T07:22:58.404Z,3.50
2022-10-23T07:25:26.320Z,3.10
2022-10-23T07:27:55.349Z,3.22
2022-10-23T07:30:22.096Z,2.80
2022-10-23T07:32:48.726Z,2.78
2022-10-23T07:37:46.902Z,2.63
2022-10-23T07:40:14.580Z,2.75
2022-10-23T07:42:41.385Z,2.75
2022-10-23T07:45:08.687Z,3.45
2022-10-23T07:47:35.225Z,3.03
2022-10-23T07:50:01.838Z,2.90
2022-10-23T07:52:32.005Z,2.63
2022-10-23T07:55:01.748Z,3.17
2022-10-23T07:57:28.369Z,3.22
2022-10-23T07:59:54.899Z,2.97
2022-10-23T08:02:21.530Z,2.75
2022-10-23T08:04:51.298Z,3.10
2022-10-23T08:07:17.963Z,2.75
2022-10-23T08:09:44.437Z,3.00
2022-10-23T08:12:11.999Z,2.90
2022-10-23T08:14:38.548Z,2.88
2022-10-23T08:17:05.456Z,2.60
2022-10-23T08:19:32.250Z,2.78
2022-10-23T08:21:58.683Z,2.25
2022-10-23T08:24:26.252Z,2.63
2022-10-23T08:26:52.766Z,2.55
2022-10-23T08:29:19.414Z,3.40
2022-10-23T08:31:45.895Z,2.30
2022-10-23T08:34:13.280Z,2.65
2022-10-23T08:36:39.677Z,2.55
2022-10-23T08:39:06.790Z,3.33
2022-10-23T08:41:47.845Z,2.63
2022-10-23T08:44:23.487Z,2.50
2022-10-23T08:47:06.689Z,2.70
2022-10-23T08:50:03.230Z,2.35
2022-10-23T08:52:45.661Z,2.58
2022-10-23T08:55:23.461Z,2.50
2022-10-23T08:57:58.607Z,2.20
2022-10-23T09:02:53.756Z,2.45
2022-10-23T09:05:31.939Z,2.17
2022-10-23T09:08:28.138Z,2.22
2022-10-23T09:11:27.799Z,2.17
2022-10-23T09:14:12.584Z,2.25
2022-10-23T09:16:49.270Z,2.28
2022-10-23T09:19:26.270Z,2.10
2022-10-23T09:21:54.288Z,2.20
2022-10-23T09:24:24.656Z,2.28
2022-10-23T09:26:53.028Z,2.22
2022-10-23T09:29:35.919Z,2.30
2022-10-23T09:32:05.651Z,2.40
2022-10-23T09:34:33.825Z,2.25
2022-10-23T09:37:02.884Z,2.10
2022-10-23T09:39:36.764Z,2.00
2022-10-23T09:42:24.729Z,1.90
2022-10-23T09:44:54.005Z,1.98
2022-10-23T09:47:23.942Z,2.55
2022-10-23T09:49:52.962Z,2.30
2022-10-23T09:52:24.602Z,2.20
2022-10-23T09:54:54.572Z,2.08
2022-10-23T09:57:40.645Z,1.83
2022-10-23T10:00:25.424Z,2.10
2022-10-23T10:03:07.019Z,1.90
2022-10-23T10:05:38.623Z,2.20
2022-10-23T10:08:21.576Z,2.05
2022-10-23T10:10:52.356Z,2.00
2022-10-23T10:13:45.142Z,1.90
2022-10-23T10:16:29.944Z,2.35
2022-10-23T10:19:08.512Z,2.05
2022-10-23T10:21:47.714Z,2.97
2022-10-23T10:24:39.062Z,2.25
2022-10-23T10:27:31.529Z,2.00
2022-10-23T10:30:18.946Z,2.15
2022-10-23T10:33:09.244Z,2.30
2022-10-23T10:36:03.867Z,2.00
2022-10-23T10:38:30.252Z,2.00
2022-10-23T10:41:05.669Z,1.83
2022-10-23T10:43:49.208Z,1.88
2022-10-23T10:46:41.586Z,1.95
2022-10-23T10:49:18.065Z,1.50
2022-10-23T10:51:48.053Z,1.60
2022-10-23T10:54:37.697Z,1.80
2022-10-23T10:57:16.897Z,1.92
2022-10-23T10:59:46.065Z,1.70
2022-10-23T11:02:34.014Z,2.10
2022-10-23T11:05:12.922Z,3.03
2022-10-23T11:08:11.494Z,1.88
2022-10-23T11:10:43.328Z,1.85
2022-10-23T11:13:33.915Z,2.08
2022-10-23T11:16:09.587Z,1.83
2022-10-23T11:18:37.617Z,1.73
2022-10-23T11:21:35.071Z,1.80
2022-10-23T11:24:16.059Z,2.00
2022-10-23T11:26:51.941Z,1.85
2022-10-23T11:29:36.743Z,2.42
2022-10-23T11:32:21.978Z,1.92
2022-10-23T11:35:03.867Z,2.22
2022-10-23T11:37:30.607Z,1.98
2022-10-23T11:40:09.155Z,2.00
2022-10-23T11:42:38.684Z,2.28
2022-10-23T11:45:35.736Z,1.80
2022-10-23T11:48:03.850Z,2.40
2022-10-23T11:50:59.103Z,2.13
2022-10-23T11:53:31.096Z,1.70
2022-10-23T11:56:02.938Z,2.00
2022-10-23T11:58:46.923Z,2.20
2022-10-23T12:01:19.516Z,1.90
2022-10-23T12:04:00.485Z,2.00
2022-10-23T12:06:31.840Z,1.95
2022-10-23T12:09:37.375Z,1.80
2022-10-23T12:12:10.938Z,1.87
2022-10-23T12:14:38.832Z,1.77
2022-10-23T12:17:23.481Z,1.45
2022-10-23T12:20:03.062Z,2.00
2022-10-23T12:22:42.395Z,1.90
2022-10-23T12:25:15.737Z,1.60
2022-10-23T12:27:52.864Z,1.90
2022-10-23T12:30:28.487Z,1.70
2022-10-23T12:33:24.565Z,1.60
2022-10-23T12:36:07.745Z,2.25
2022-10-23T12:38:43.747Z,1.75
2022-10-23T12:41:28.616Z,1.83
2022-10-23T12:44:01.004Z,2.00
2022-10-23T12:46:30.282Z,2.03
2022-10-23T12:48:58.446Z,2.28
2022-10-23T12:51:33.099Z,1.60
2022-10-23T12:54:00.736Z,2.13
2022-10-23T12:56:37.497Z,1.88
2022-10-23T12:59:05.376Z,1.50
2022-10-23T13:01:34.794Z,1.90
2022-10-23T13:04:13.037Z,1.75
2022-10-23T13:06:40.479Z,2.00
2022-10-23T13:09:20.592Z,1.88
2022-10-23T13:11:47.473Z,1.52
2022-10-23T13:14:14.371Z,1.75
2022-10-23T13:16:40.808Z,1.73
2022-10-23T13:19:22.330Z,1.70
2022-10-23T13:21:49.415Z,2.70
2022-10-23T13:24:20.909Z,1.90
2022-10-23T13:26:47.759Z,2.15
2022-10-23T13:29:20.316Z,1.80
2022-10-23T13:31:47.405Z,1.80
2022-10-23T13:34:25.289Z,1.88
2022-10-23T13:36:55.338Z,1.98
2022-10-23T13:39:27.206Z,2.33
2022-10-23T13:41:53.888Z,1.60
2022-10-23T13:44:22.941Z,1.80
2022-10-23T13:46:51.966Z,2.13
2022-10-23T13:49:19.381Z,1.63
2022-10-23T13:51:51.852Z,1.92
2022-10-23T13:54:24.534Z,1.90
2022-10-23T13:56:51.743Z,2.17
2022-10-23T13:59:18.524Z,2.53
2022-10-23T14:01:46.985Z,2.05
2022-10-23T14:04:14.546Z,1.90
2022-10-23T14:06:42.070Z,1.92
2022-10-23T14:09:12.366Z,1.75
2022-10-23T14:11:39.068Z,2.30
2022-10-23T14:14:05.702Z,1.90
2022-10-23T14:16:32.193Z,1.73
2022-10-23T14:18:58.695Z,1.80
2022-10-23T14:21:25.660Z,1.90
2022-10-23T14:23:53.769Z,1.75
2022-10-23T14:26:24.378Z,1.85
2022-10-23T14:28:55.357Z,1.75
2022-10-23T14:31:21.980Z,1.85
2022-10-23T14:33:53.899Z,2.13
2022-10-23T14:36:20.536Z,1.98
2022-10-23T14:38:47.126Z,2.20
2022-10-23T14:41:16.395Z,1.60
2022-10-23T14:43:43.094Z,1.88
2022-10-23T14:46:22.042Z,1.92
2022-10-23T14:48:51.056Z,1.67
2022-10-23T14:51:28.633Z,1.70
2022-10-23T14:54:01.710Z,2.17
2022-10-23T14:56:29.930Z,2.13
2022-10-23T15:02:03.328Z,2.28
2022-10-23T15:04:29.716Z,1.90
2022-10-23T15:06:56.248Z,2.30
2022-10-23T15:09:22.725Z,2.47
2022-10-23T15:11:50.503Z,1.80
2022-10-23T15:14:16.908Z,2.25
2022-10-23T15:16:43.507Z,2.25
2022-10-23T15:19:15.118Z,1.95
2022-10-23T15:21:44.942Z,2.55
2022-10-23T15:24:11.467Z,1.77
2022-10-23T15:26:38.479Z,2.53
2022-10-23T15:29:05.476Z,1.95
2022-10-23T15:31:37.714Z,1.90
2022-10-23T15:34:05.663Z,2.10
2022-10-23T15:36:32.612Z,1.77
2022-10-23T15:39:00.626Z,2.10
2022-10-23T15:41:32.185Z,2.15
2022-10-23T15:44:00.550Z,2.38
2022-10-23T15:46:26.979Z,2.20
2022-10-23T15:48:53.959Z,2.25
2022-10-23T15:51:20.869Z,2.35
2022-10-23T15:53:47.544Z,2.15
2022-10-23T15:56:14.285Z,1.80
2022-10-23T15:58:40.889Z,2.63
2022-10-23T16:01:07.761Z,2.13
2022-10-23T16:03:36.182Z,2.25
2022-10-23T16:06:12.404Z,2.83
2022-10-23T16:08:39.727Z,2.20
2022-10-23T16:11:15.940Z,2.60
2022-10-23T16:13:43.559Z,2.40
2022-10-23T16:16:10.249Z,2.55
2022-10-23T16:18:36.912Z,2.20
2022-10-23T16:21:03.656Z,4.35
2022-10-23T16:23:30.156Z,2.70
2022-10-23T16:25:56.681Z,3.88
2022-10-23T16:28:23.180Z,3.03
2022-10-23T16:30:49.678Z,2.75
2022-10-23T16:33:16.092Z,2.78
2022-10-23T16:35:42.641Z,3.40
2022-10-23T16:38:09.083Z,2.72
2022-10-23T16:40:35.475Z,2.85
2022-10-23T16:43:01.981Z,3.38
2022-10-23T16:45:28.436Z,2.67
2022-10-23T16:47:55.099Z,3.17
2022-10-23T16:50:21.768Z,2.95
2022-10-23T16:52:49.910Z,3.15
2022-10-23T16:55:18.627Z,2.78
2022-10-23T16:57:45.113Z,2.72
2022-10-23T17:00:11.799Z,2.67
2022-10-23T17:02:38.401Z,2.28
2022-10-23T17:05:05.331Z,2.40
2022-10-23T17:07:33.087Z,2.65
2022-10-23T17:09:59.524Z,2.63
2022-10-23T17:12:26.266Z,2.40
2022-10-23T17:14:52.688Z,2.63
2022-10-23T17:17:19.290Z,2.47
2022-10-23T17:19:46.652Z,2.92
2022-10-23T17:22:13.952Z,3.50
2022-10-23T17:24:43.528Z,3.30
2022-10-23T17:27:11.786Z,3.67
2022-10-23T17:29:39.467Z,2.78
2022-10-23T17:32:06.068Z,3.45
2022-10-23T17:34:34.052Z,4.53
2022-10-23T17:37:00.840Z,3.40
2022-10-23T17:39:29.198Z,3.10
2022-10-23T17:41:56.690Z,3.13
2022-10-23T17:44:24.226Z,3.20
2022-10-23T17:46:53.529Z,3.65
2022-10-23T17:49:21.181Z,3.67
2022-10-23T17:51:54.621Z,3.67
2022-10-23T17:54:22.439Z,4.07
2022-10-23T17:56:49.703Z,4.25
2022-10-23T17:59:19.549Z,3.65
2022-10-23T18:01:48.397Z,3.45
2022-10-23T18:04:18.107Z,4.07
2022-10-23T18:06:49.577Z,3.40
2022-10-23T18:09:16.590Z,3.28
2022-10-23T18:11:48.111Z,3.30
2022-10-23T18:14:17.281Z,2.88
2022-10-23T18:16:45.981Z,2.85
2022-10-23T18:19:13.889Z,2.60
2022-10-23T18:21:40.627Z,2.55
2022-10-23T18:24:07.785Z,2.33
2022-10-23T18:26:35.368Z,2.33
2022-10-23T18:29:07.040Z,2.72
2022-10-23T18:31:35.409Z,2.33
2022-10-23T18:34:04.914Z,2.30
2022-10-23T18:36:35.387Z,2.17
2022-10-23T18:39:02.911Z,2.45
2022-10-23T18:41:38.238Z,2.20
2022-10-23T18:44:04.805Z,3.05
2022-10-23T18:46:31.891Z,2.17
2022-10-23T18:48:58.583Z,2.10
2022-10-23T18:51:28.950Z,3.00
2022-10-23T18:53:56.231Z,2.42
2022-10-23T18:56:26.010Z,3.05
2022-10-23T18:58:57.975Z,3.03
2022-10-23T19:01:26.987Z,3.42
2022-10-23T19:06:22.069Z,3.72
2022-10-23T19:08:51.248Z,3.92
2022-10-23T19:11:19.573Z,3.58
2022-10-23T19:13:46.186Z,3.60
2022-10-23T19:16:30.811Z,4.53
2022-10-23T19:19:01.405Z,3.67
2022-10-23T19:21:33.255Z,3.80
2022-10-23T19:24:07.232Z,4.15
2022-10-23T19:26:35.745Z,4.13
2022-10-23T19:29:02.985Z,3.65
2022-10-23T19:31:29.418Z,5.35
2022-10-23T19:33:55.931Z,4.25
2022-10-23T19:36:23.549Z,4.60
2022-10-23T19:38:50.673Z,4.88
2022-10-23T19:41:18.307Z,4.35
2022-10-23T19:43:45.333Z,3.70
2022-10-23T19:46:12.300Z,3.70
2022-10-23T19:48:42.405Z,3.50
2022-10-23T19:51:09.579Z,3.42
2022-10-23T19:53:36.439Z,3.67
2022-10-23T19:56:08.139Z,4.00
2022-10-23T19:58:34.709Z,4.50
2022-10-23T20:01:15.424Z,4.00
2022-10-23T20:03:44.515Z,4.07
2022-10-23T20:06:20.420Z,4.07
2022-10-23T20:08:47.778Z,3.80
2022-10-23T20:11:27.983Z,3.88
2022-10-23T20:13:55.551Z,3.60
2022-10-23T20:16:29.050Z,3.85
2022-10-23T20:18:55.728Z,3.78
2022-10-23T20:21:24.360Z,3.67
2022-10-23T20:23:51.135Z,3.97
2022-10-23T20:26:21.142Z,3.88
2022-10-23T20:28:51.079Z,3.53
2022-10-23T20:31:19.115Z,3.65
2022-10-23T20:33:45.927Z,3.50
2022-10-23T20:36:33.440Z,3.70
2022-10-23T20:39:04.219Z,3.42
2022-10-23T20:41:33.179Z,4.05
2022-10-23T20:44:00.529Z,3.58
2022-10-23T20:46:27.062Z,3.40
2022-10-23T20:48:53.756Z,2.78
2022-10-23T20:51:23.078Z,3.13
2022-10-23T20:53:50.783Z,3.45
2022-10-23T20:56:23.462Z,3.38
2022-10-23T20:58:50.536Z,3.72
2022-10-23T21:01:17.997Z,3.35
2022-10-23T21:03:49.708Z,3.88
2022-10-23T21:06:18.317Z,3.17
2022-10-23T21:08:45.354Z,2.95
2022-10-23T21:11:17.322Z,3.60
2022-10-23T21:13:45.231Z,3.90
2022-10-23T21:16:24.841Z,3.08
2022-10-23T21:18:56.379Z,3.42
2022-10-23T21:21:24.328Z,3.80
2022-10-23T21:23:53.083Z,3.45
2022-10-23T21:26:22.589Z,3.80
2022-10-23T21:28:56.283Z,3.92
2022-10-23T21:31:33.539Z,5.00
2022-10-23T21:34:00.231Z,3.85
2022-10-23T21:36:27.458Z,3.63
2022-10-23T21:38:56.442Z,3.47
2022-10-23T21:41:31.689Z,3.42
2022-10-23T21:44:01.848Z,3.80
2022-10-23T21:46:30.172Z,3.47
2022-10-23T21:48:58.614Z,3.78
2022-10-23T21:51:26.696Z,3.55
2022-10-23T21:53:54.110Z,3.67
2022-10-23T21:56:28.792Z,3.70
2022-10-23T21:58:56.700Z,3.90
2022-10-23T22:01:23.303Z,3.45
2022-10-23T22:03:50.066Z,3.13
2022-10-23T22:06:22.354Z,3.65
2022-10-23T22:08:49.405Z,3.50
2022-10-23T22:11:16.500Z,3.40
2022-10-23T22:13:44.315Z,4.90
2022-10-23T22:16:12.119Z,3.45
2022-10-23T22:18:38.544Z,3.33
2022-10-23T22:21:15.163Z,3.60
2022-10-23T22:23:42.326Z,4.18
2022-10-23T22:26:36.033Z,3.80
2022-10-23T22:29:05.665Z,3.20
2022-10-23T22:31:33.417Z,3.28
2022-10-23T22:34:13.021Z,3.63
2022-10-23T22:36:47.838Z,3.83
2022-10-23T22:39:14.713Z,3.88
2022-10-23T22:41:43.223Z,4.22
2022-10-23T22:44:11.655Z,3.45
2022-10-23T22:46:38.496Z,3.38
2022-10-23T22:51:32.454Z,3.83
2022-10-23T22:53:59.540Z,3.40
2022-10-23T22:56:28.534Z,3.28
2022-10-23T22:58:56.370Z,3.83
2022-10-23T23:01:26.717Z,3.47
2022-10-23T23:03:53.730Z,3.50
2022-10-23T23:06:21.949Z,3.10
2022-10-23T23:08:49.778Z,3.50
2022-10-23T23:11:18.129Z,3.38
2022-10-23T23:13:45.390Z,3.13
2022-10-23T23:16:21.968Z,3.15
2022-10-23T23:18:49.257Z,4.03
2022-10-23T23:21:16.809Z,2.83
2022-10-23T23:23:43.594Z,4.18
2022-10-23T23:26:10.758Z,4.18
2022-10-23T23:28:37.601Z,3.05
2022-10-23T23:31:07.572Z,3.70
2022-10-23T23:33:35.255Z,3.17
2022-10-23T23:36:07.256Z,3.45
2022-10-23T23:38:34.632Z,4.35
2022-10-23T23:41:01.282Z,3.72
2022-10-23T23:43:27.802Z,3.20
2022-10-23T23:45:54.336Z,3.58
2022-10-23T23:48:20.775Z,4.18
2022-10-23T23:50:47.425Z,3.50
2022-10-23T23:53:13.958Z,3.60
2022-10-23T23:55:40.570Z,4.05
2022-10-23T23:58:07.106Z,3.55
